createdAt,value
2023-02-01T00:00:19.988Z,5.81
2023-02-01T00:02:48.906Z,5.78
2023-02-01T00:05:17.635Z,5.79
2023-02-01T00:07:49.341Z,5.81
2023-02-01T00:10:19.348Z,5.87
2023-02-01T00:12:47.754Z,6.00
2023-02-01T00:15:16.313Z,6.00
2023-02-01T00:17:46.693Z,5.99
2023-02-01T00:20:18.085Z,6.23
2023-02-01T00:22:46.420Z,6.12
2023-02-01T00:25:14.334Z,6.10
2023-02-01T00:27:44.131Z,6.13
2023-02-01T00:30:13.606Z,6.18
2023-02-01T00:32:41.838Z,6.30
2023-02-01T00:35:10.856Z,6.35
2023-02-01T00:37:39.132Z,6.37
2023-02-01T00:40:08.688Z,6.26
2023-02-01T00:42:36.721Z,6.26
2023-02-01T00:45:07.385Z,6.33
2023-02-01T00:47:35.518Z,6.33
2023-02-01T00:50:03.649Z,6.45
2023-02-01T00:52:31.605Z,6.33
2023-02-01T00:54:59.798Z,6.52
2023-02-01T00:57:28.170Z,6.44
2023-02-01T00:59:56.288Z,6.48
2023-02-01T01:02:29.688Z,6.54
2023-02-01T01:04:57.665Z,6.41
2023-02-01T01:07:29.762Z,6.41
2023-02-01T01:09:57.964Z,6.45
2023-02-01T01:12:26.150Z,6.45
2023-02-01T01:14:54.208Z,6.54
2023-02-01T01:17:22.569Z,6.51
2023-02-01T01:19:52.648Z,6.55
2023-02-01T01:22:20.620Z,6.60
2023-02-01T01:24:48.937Z,6.56
2023-02-01T01:27:16.986Z,6.51
2023-02-01T01:29:44.903Z,6.53
2023-02-01T01:32:13.448Z,6.44
2023-02-01T01:34:41.575Z,6.56
2023-02-01T01:37:11.339Z,6.52
2023-02-01T01:39:39.216Z,6.53
2023-02-01T01:42:07.268Z,6.49
2023-02-01T01:45:02.239Z,6.65
2023-02-01T01:47:35.887Z,6.61
2023-02-01T01:50:10.437Z,6.59
2023-02-01T01:52:43.045Z,6.62
2023-02-01T01:55:12.375Z,6.59
2023-02-01T01:57:44.460Z,6.56
2023-02-01T02:00:15.322Z,6.57
2023-02-01T02:02:49.632Z,6.62
2023-02-01T02:05:20.476Z,6.66
2023-02-01T02:07:52.455Z,6.66
2023-02-01T02:10:20.763Z,6.60
2023-02-01T02:12:50.541Z,6.70
2023-02-01T02:15:19.616Z,6.63
2023-02-01T02:17:57.825Z,6.63
2023-02-01T02:21:04.151Z,6.81
2023-02-01T02:24:11.742Z,6.75
2023-02-01T02:27:25.748Z,6.81
2023-02-01T02:30:39.534Z,6.68
2023-02-01T02:33:42.687Z,6.71
2023-02-01T02:36:18.867Z,6.70
2023-02-01T02:38:55.636Z,6.66
2023-02-01T02:41:49.373Z,6.64
2023-02-01T02:44:44.740Z,6.71
2023-02-01T02:47:28.372Z,6.84
2023-02-01T02:50:32.729Z,6.80
2023-02-01T02:53:23.788Z,6.73
2023-02-01T02:55:53.520Z,6.73
2023-02-01T02:58:40.913Z,6.83
2023-02-01T03:01:27.437Z,6.67
2023-02-01T03:04:12.955Z,6.72
2023-02-01T03:06:47.419Z,6.76
2023-02-01T03:09:22.054Z,6.74
2023-02-01T03:12:18.021Z,6.68
2023-02-01T03:14:52.747Z,6.74
2023-02-01T03:17:30.956Z,6.73
2023-02-01T03:20:03.400Z,6.66
2023-02-01T03:22:36.336Z,6.69
2023-02-01T03:25:10.565Z,6.68
2023-02-01T03:27:46.740Z,6.65
2023-02-01T03:30:23.355Z,6.68
2023-02-01T03:33:02.256Z,6.76
2023-02-01T03:35:53.740Z,6.86
2023-02-01T03:38:41.072Z,6.74
2023-02-01T03:41:18.111Z,6.75
2023-02-01T03:43:57.501Z,6.58
2023-02-01T03:46:34.827Z,6.52
2023-02-01T03:49:08.388Z,6.73
2023-02-01T03:51:42.918Z,6.65
2023-02-01T03:54:15.522Z,6.60
2023-02-01T03:56:52.303Z,6.56
2023-02-01T03:59:21.029Z,6.63
2023-02-01T04:01:55.674Z,6.57
2023-02-01T04:04:27.433Z,6.56
2023-02-01T04:06:58.372Z,6.58
2023-02-01T04:09:29.696Z,6.59
2023-02-01T04:11:59.570Z,6.69
2023-02-01T04:14:29.742Z,6.56
2023-02-01T04:16:58.410Z,6.52
2023-02-01T04:19:31.479Z,6.62
2023-02-01T04:22:18.959Z,6.52
2023-02-01T04:24:51.877Z,6.51
2023-02-01T04:27:20.581Z,6.48
2023-02-01T04:29:50.626Z,6.66
2023-02-01T04:32:19.241Z,6.50
2023-02-01T04:34:49.434Z,6.57
2023-02-01T04:37:17.854Z,6.62
2023-02-01T04:39:46.216Z,6.60
2023-02-01T04:42:15.652Z,6.51
2023-02-01T04:44:45.916Z,6.61
2023-02-01T04:47:14.393Z,6.58
2023-02-01T04:49:42.860Z,6.52
2023-02-01T04:52:11.600Z,6.57
2023-02-01T04:54:40.162Z,6.79
2023-02-01T04:57:10.481Z,6.65
2023-02-01T04:59:40.018Z,6.62
2023-02-01T05:02:09.095Z,6.51
2023-02-01T05:04:37.130Z,6.52
2023-02-01T05:07:05.389Z,6.46
2023-02-01T05:09:33.481Z,6.48
2023-02-01T05:12:28.410Z,6.55
2023-02-01T05:14:58.327Z,6.49
2023-02-01T05:17:26.233Z,6.50
2023-02-01T05:19:54.343Z,6.54
2023-02-01T05:22:24.690Z,6.71
2023-02-01T05:24:52.921Z,6.66
2023-02-01T05:27:21.467Z,6.63
2023-02-01T05:29:49.492Z,6.60
2023-02-01T05:32:22.590Z,6.61
2023-02-01T05:34:51.253Z,6.62
2023-02-01T05:37:19.329Z,6.65
2023-02-01T05:39:47.527Z,6.64
2023-02-01T05:42:18.112Z,6.75
2023-02-01T05:44:46.765Z,6.66
2023-02-01T05:47:14.887Z,6.56
2023-02-01T05:49:44.479Z,6.61
2023-02-01T05:52:12.973Z,6.62
2023-02-01T05:54:41.101Z,6.72
2023-02-01T05:57:10.042Z,6.56
2023-02-01T05:59:41.907Z,6.56
2023-02-01T06:02:11.113Z,6.48
2023-02-01T06:04:39.109Z,6.38
2023-02-01T06:07:12.512Z,6.29
2023-02-01T06:09:40.660Z,6.34
2023-02-01T06:12:08.903Z,6.22
2023-02-01T06:14:37.978Z,6.16
2023-02-01T06:17:09.372Z,6.08
2023-02-01T06:19:37.610Z,6.11
2023-02-01T06:22:07.626Z,6.04
2023-02-01T06:24:37.379Z,6.11
2023-02-01T06:27:05.645Z,6.19
2023-02-01T06:29:36.726Z,6.01
2023-02-01T06:32:05.118Z,6.00
2023-02-01T06:34:33.695Z,6.11
2023-02-01T06:37:02.795Z,6.07
2023-02-01T06:39:30.693Z,6.20
2023-02-01T06:42:02.451Z,6.09
2023-02-01T06:44:31.264Z,6.11
2023-02-01T06:46:59.511Z,6.17
2023-02-01T06:49:30.170Z,6.07
2023-02-01T06:51:58.252Z,6.05
2023-02-01T06:54:26.106Z,6.00
2023-02-01T06:56:54.323Z,6.01
2023-02-01T06:59:24.108Z,6.06
2023-02-01T07:01:52.612Z,6.05
2023-02-01T07:04:20.622Z,6.08
2023-02-01T07:06:51.074Z,6.03
2023-02-01T07:09:19.195Z,6.05
2023-02-01T07:11:47.497Z,6.09
2023-02-01T07:14:15.934Z,6.17
2023-02-01T07:16:47.671Z,6.25
2023-02-01T07:19:15.605Z,6.28
2023-02-01T07:21:43.628Z,6.29
2023-02-01T07:24:12.091Z,6.39
2023-02-01T07:26:40.157Z,6.22
2023-02-01T07:29:08.074Z,6.26
2023-02-01T07:31:36.341Z,6.10
2023-02-01T07:34:05.978Z,6.21
2023-02-01T07:36:37.299Z,6.16
2023-02-01T07:39:06.097Z,6.19
2023-02-01T07:41:34.314Z,6.13
2023-02-01T07:44:02.585Z,6.17
2023-02-01T07:46:33.042Z,6.22
2023-02-01T07:49:01.308Z,6.16
2023-02-01T07:51:30.601Z,6.33
2023-02-01T07:53:58.887Z,6.26
2023-02-01T07:56:27.555Z,6.24
2023-02-01T07:58:56.951Z,6.29
2023-02-01T08:01:26.287Z,6.29
2023-02-01T08:04:00.015Z,6.36
2023-02-01T08:06:31.998Z,6.44
2023-02-01T08:09:00.392Z,6.43
2023-02-01T08:11:28.945Z,6.53
2023-02-01T08:13:57.265Z,6.53
2023-02-01T08:16:26.146Z,6.60
2023-02-01T08:18:56.073Z,6.69
2023-02-01T08:21:26.445Z,6.69
2023-02-01T08:23:57.316Z,6.69
2023-02-01T08:26:27.823Z,6.73
2023-02-01T08:28:58.199Z,6.88
2023-02-01T08:31:28.744Z,6.87
2023-02-01T08:33:58.992Z,6.89
2023-02-01T08:36:29.884Z,6.97
2023-02-01T08:39:02.137Z,6.96
2023-02-01T08:41:32.334Z,6.94
2023-02-01T08:44:00.581Z,6.98
2023-02-01T08:46:30.975Z,7.02
2023-02-01T08:48:59.108Z,7.10
2023-02-01T08:51:27.292Z,7.18
2023-02-01T08:53:55.547Z,7.16
2023-02-01T08:56:24.986Z,7.20
2023-02-01T08:58:53.042Z,7.13
2023-02-01T09:01:21.212Z,7.11
2023-02-01T09:03:52.028Z,7.21
2023-02-01T09:06:20.197Z,7.18
2023-02-01T09:08:48.813Z,7.30
2023-02-01T09:11:20.672Z,7.31
2023-02-01T09:13:51.235Z,7.19
2023-02-01T09:16:20.094Z,7.19
2023-02-01T09:18:56.755Z,7.21
2023-02-01T09:21:36.446Z,7.35
2023-02-01T09:24:06.184Z,7.34
2023-02-01T09:26:34.389Z,7.25
2023-02-01T09:29:11.922Z,7.26
2023-02-01T09:31:44.213Z,7.26
2023-02-01T09:34:20.078Z,7.24
2023-02-01T09:36:48.307Z,7.24
2023-02-01T09:39:16.241Z,7.30
2023-02-01T09:41:53.881Z,7.42
2023-02-01T09:44:44.613Z,7.41
2023-02-01T09:47:14.920Z,7.28
2023-02-01T09:49:54.042Z,7.31
2023-02-01T09:52:30.605Z,7.34
2023-02-01T09:55:04.079Z,7.31
2023-02-01T09:57:44.363Z,7.34
2023-02-01T10:00:24.637Z,7.37
2023-02-01T10:02:53.426Z,7.47
2023-02-01T10:05:34.331Z,7.44
2023-02-01T10:08:08.705Z,7.44
2023-02-01T10:10:46.408Z,7.53
2023-02-01T10:13:37.794Z,7.41
2023-02-01T10:16:17.452Z,7.40
2023-02-01T10:19:07.973Z,7.49
2023-02-01T10:21:52.063Z,7.53
2023-02-01T10:24:37.527Z,7.56
2023-02-01T10:27:15.296Z,7.59
2023-02-01T10:29:46.927Z,7.58
2023-02-01T10:32:19.394Z,7.61
2023-02-01T10:34:54.134Z,7.71
2023-02-01T10:37:29.889Z,7.60
2023-02-01T10:39:59.561Z,7.71
2023-02-01T10:42:31.060Z,7.66
2023-02-01T10:45:04.142Z,7.73
2023-02-01T10:47:36.766Z,7.69
2023-02-01T10:50:17.291Z,7.68
2023-02-01T10:52:50.033Z,7.68
2023-02-01T10:55:36.361Z,7.73
2023-02-01T10:58:07.009Z,7.72
2023-02-01T11:00:47.656Z,7.80
2023-02-01T11:03:41.288Z,7.82
2023-02-01T11:06:20.258Z,7.81
2023-02-01T11:08:51.199Z,7.87
2023-02-01T11:11:20.477Z,7.91
2023-02-01T11:13:55.523Z,7.96
2023-02-01T11:16:23.584Z,7.90
2023-02-01T11:18:57.223Z,7.99
2023-02-01T11:21:25.539Z,8.01
2023-02-01T11:23:53.841Z,8.05
2023-02-01T11:26:26.935Z,7.96
2023-02-01T11:29:01.815Z,8.10
2023-02-01T11:31:30.642Z,8.11
2023-02-01T11:34:08.411Z,8.10
2023-02-01T11:36:38.963Z,8.10
2023-02-01T11:39:26.408Z,8.15
2023-02-01T11:42:02.536Z,8.09
2023-02-01T11:44:37.281Z,8.02
2023-02-01T11:47:26.637Z,8.06
2023-02-01T11:49:58.101Z,8.08
2023-02-01T11:52:47.368Z,8.14
2023-02-01T11:55:41.829Z,8.16
2023-02-01T11:58:31.878Z,8.16
2023-02-01T12:01:15.081Z,8.17
2023-02-01T12:04:07.177Z,8.15
2023-02-01T12:06:48.532Z,8.19
2023-02-01T12:09:31.747Z,8.07
2023-02-01T12:12:10.416Z,8.13
2023-02-01T12:15:01.218Z,8.22
2023-02-01T12:17:47.451Z,8.15
2023-02-01T12:20:27.245Z,8.20
2023-02-01T12:23:17.801Z,8.12
2023-02-01T12:26:04.342Z,8.16
2023-02-01T12:29:07.037Z,8.16
2023-02-01T12:32:10.122Z,8.17
2023-02-01T12:35:06.781Z,8.32
2023-02-01T12:37:55.851Z,8.23
2023-02-01T12:40:41.258Z,8.22
2023-02-01T12:43:18.217Z,8.24
2023-02-01T12:45:54.404Z,8.20
2023-02-01T12:48:32.358Z,8.14
2023-02-01T12:51:04.405Z,8.10
2023-02-01T12:53:46.415Z,8.14
2023-02-01T12:56:24.871Z,8.26
2023-02-01T12:58:55.801Z,8.21
2023-02-01T13:01:29.915Z,8.27
2023-02-01T13:04:06.886Z,8.24
2023-02-01T13:06:40.686Z,8.03
2023-02-01T13:09:25.828Z,8.09
2023-02-01T13:12:00.140Z,8.06
2023-02-01T13:14:35.008Z,8.10
2023-02-01T13:17:07.825Z,8.08
2023-02-01T13:19:47.300Z,8.03
2023-02-01T13:22:19.384Z,8.11
2023-02-01T13:24:51.942Z,8.10
2023-02-01T13:27:22.147Z,8.14
2023-02-01T13:29:59.855Z,8.06
2023-02-01T13:33:51.113Z,8.18
2023-02-01T13:36:03.607Z,8.29
2023-02-01T13:38:59.992Z,8.32
2023-02-01T13:41:33.105Z,8.27
2023-02-01T13:44:07.804Z,8.27
2023-02-01T13:46:43.078Z,8.18
2023-02-01T13:49:22.064Z,8.18
2023-02-01T13:51:56.433Z,8.20
2023-02-01T13:54:31.258Z,8.31
2023-02-01T13:57:02.603Z,8.26
2023-02-01T14:00:11.759Z,8.32
2023-02-01T14:03:17.651Z,8.43
2023-02-01T14:06:36.977Z,8.38
2023-02-01T14:09:17.627Z,8.29
2023-02-01T14:11:49.250Z,8.38
2023-02-01T14:14:53.251Z,8.44
2023-02-01T14:17:41.396Z,8.46
2023-02-01T14:20:55.912Z,8.45
2023-02-01T14:23:29.315Z,8.38
2023-02-01T14:26:20.652Z,8.48
2023-02-01T14:28:58.142Z,8.54
2023-02-01T14:31:37.968Z,8.49
2023-02-01T14:34:17.520Z,8.53
2023-02-01T14:36:49.377Z,8.62
2023-02-01T14:39:39.050Z,8.60
2023-02-01T14:42:22.832Z,8.64
2023-02-01T14:44:58.899Z,8.70
2023-02-01T14:47:34.326Z,8.63
2023-02-01T14:50:17.349Z,8.77
2023-02-01T14:52:49.446Z,8.88
2023-02-01T14:55:23.263Z,8.91
2023-02-01T14:57:55.219Z,9.01
2023-02-01T15:00:27.420Z,9.15
2023-02-01T15:03:24.252Z,9.34
2023-02-01T15:05:59.488Z,9.32
2023-02-01T15:08:31.155Z,9.40
2023-02-01T15:11:04.189Z,9.36
2023-02-01T15:13:32.373Z,9.32
2023-02-01T15:16:12.380Z,9.29
2023-02-01T15:18:41.769Z,9.35
2023-02-01T15:21:28.569Z,9.35
2023-02-01T15:24:13.397Z,9.18
2023-02-01T15:26:41.829Z,9.18
2023-02-01T15:29:14.145Z,9.14
2023-02-01T15:31:45.626Z,9.04
2023-02-01T15:34:15.122Z,8.99
2023-02-01T15:37:01.516Z,9.05
2023-02-01T15:39:32.483Z,9.04
2023-02-01T15:42:04.139Z,8.93
2023-02-01T15:44:41.504Z,8.94
2023-02-01T15:47:17.077Z,8.94
2023-02-01T15:49:48.723Z,8.93
2023-02-01T15:52:28.746Z,8.87
2023-02-01T15:55:03.719Z,8.75
2023-02-01T15:57:37.680Z,8.79
2023-02-01T16:00:08.910Z,8.78
2023-02-01T16:02:54.531Z,8.80
2023-02-01T16:05:34.546Z,8.74
2023-02-01T16:08:09.512Z,8.77
2023-02-01T16:10:43.147Z,8.83
2023-02-01T16:13:11.907Z,8.70
2023-02-01T16:15:40.718Z,8.69
2023-02-01T16:18:17.574Z,8.66
2023-02-01T16:20:47.070Z,8.79
2023-02-01T16:23:16.895Z,8.79
2023-02-01T16:25:45.345Z,8.69
2023-02-01T16:28:13.690Z,8.80
2023-02-01T16:30:44.765Z,8.69
2023-02-01T16:33:22.649Z,8.69
2023-02-01T16:35:51.895Z,8.80
2023-02-01T16:38:24.637Z,8.80
2023-02-01T16:40:53.059Z,8.62
2023-02-01T16:43:22.963Z,8.59
2023-02-01T16:45:52.714Z,8.70
2023-02-01T16:48:24.107Z,8.60
2023-02-01T16:50:55.120Z,8.62
2023-02-01T16:53:25.932Z,8.60
2023-02-01T16:55:54.463Z,8.53
2023-02-01T16:58:23.416Z,8.47
2023-02-01T17:00:53.224Z,8.66
2023-02-01T17:03:24.683Z,8.59
2023-02-01T17:05:58.003Z,8.57
2023-02-01T17:08:34.776Z,8.66
2023-02-01T17:11:04.424Z,8.65
2023-02-01T17:13:33.247Z,8.55
2023-02-01T17:16:06.886Z,8.69
2023-02-01T17:18:37.380Z,8.61
2023-02-01T17:21:07.663Z,8.61
2023-02-01T17:23:37.661Z,8.78
2023-02-01T17:26:06.724Z,8.79
2023-02-01T17:28:38.220Z,8.73
2023-02-01T17:31:06.911Z,8.62
2023-02-01T17:33:38.542Z,8.67
2023-02-01T17:36:07.949Z,8.62
2023-02-01T17:38:37.802Z,8.71
2023-02-01T17:41:06.352Z,8.69
2023-02-01T17:43:34.795Z,8.74
2023-02-01T17:46:07.274Z,8.70
2023-02-01T17:48:36.641Z,8.72
2023-02-01T17:51:05.503Z,8.63
2023-02-01T17:53:37.483Z,8.61
2023-02-01T17:56:06.869Z,8.61
2023-02-01T17:58:37.908Z,8.62
2023-02-01T18:01:13.986Z,8.70
2023-02-01T18:03:43.252Z,8.70
2023-02-01T18:06:15.116Z,8.76
2023-02-01T18:08:46.802Z,8.75
2023-02-01T18:11:19.862Z,8.77
2023-02-01T18:13:49.370Z,8.58
2023-02-01T18:16:20.979Z,8.55
2023-02-01T18:18:49.731Z,8.57
2023-02-01T18:21:22.872Z,8.56
2023-02-01T18:23:54.391Z,8.52
2023-02-01T18:26:22.801Z,8.51
2023-02-01T18:28:51.292Z,8.50
2023-02-01T18:31:23.641Z,8.50
2023-02-01T18:33:56.209Z,8.41
2023-02-01T18:36:27.906Z,8.37
2023-02-01T18:38:57.971Z,8.35
2023-02-01T18:41:27.113Z,8.35
2023-02-01T18:43:55.224Z,8.32
2023-02-01T18:46:23.815Z,8.28
2023-02-01T18:48:51.931Z,8.22
2023-02-01T18:51:21.567Z,8.37
2023-02-01T18:53:50.042Z,8.24
2023-02-01T18:56:20.829Z,8.28
2023-02-01T18:58:49.766Z,8.39
2023-02-01T19:01:22.420Z,8.24
2023-02-01T19:03:54.545Z,8.14
2023-02-01T19:06:37.807Z,8.30
2023-02-01T19:09:06.166Z,8.26
2023-02-01T19:11:35.961Z,8.31
2023-02-01T19:14:05.836Z,8.23
2023-02-01T19:16:38.524Z,8.25
2023-02-01T19:19:08.955Z,8.32
2023-02-01T19:21:37.493Z,8.27
2023-02-01T19:24:06.537Z,8.19
2023-02-01T19:26:36.396Z,8.04
2023-02-01T19:29:07.469Z,8.08
2023-02-01T19:31:36.139Z,8.05
2023-02-01T19:34:04.846Z,8.19
2023-02-01T19:36:40.362Z,8.07
2023-02-01T19:39:11.178Z,8.08
2023-02-01T19:41:40.855Z,8.13
2023-02-01T19:44:09.876Z,8.04
2023-02-01T19:46:39.441Z,8.04
2023-02-01T19:49:11.994Z,7.98
2023-02-01T19:51:44.801Z,7.95
2023-02-01T19:54:13.668Z,8.03
2023-02-01T19:56:43.902Z,7.96
2023-02-01T19:59:13.658Z,7.94
2023-02-01T20:01:44.456Z,7.93
2023-02-01T20:04:14.436Z,7.90
2023-02-01T20:06:48.808Z,7.87
2023-02-01T20:09:19.629Z,7.90
2023-02-01T20:12:14.138Z,7.93
2023-02-01T20:14:42.802Z,7.90
2023-02-01T20:17:17.992Z,7.92
2023-02-01T20:19:46.141Z,8.05
2023-02-01T20:22:16.176Z,8.02
2023-02-01T20:24:44.839Z,8.04
2023-02-01T20:27:15.293Z,7.98
2023-02-01T20:29:43.419Z,7.99
2023-02-01T20:32:12.184Z,7.92
2023-02-01T20:34:42.241Z,7.93
2023-02-01T20:37:12.922Z,7.95
2023-02-01T20:39:41.627Z,7.90
2023-02-01T20:42:10.311Z,8.03
2023-02-01T20:44:39.964Z,7.92
2023-02-01T20:47:08.410Z,7.98
2023-02-01T20:49:40.406Z,8.10
2023-02-01T20:52:13.573Z,8.04
2023-02-01T20:54:41.997Z,8.08
2023-02-01T20:57:11.886Z,8.04
2023-02-01T20:59:41.539Z,7.99
2023-02-01T21:02:11.500Z,8.06
2023-02-01T21:04:39.466Z,8.12
2023-02-01T21:07:07.535Z,8.09
2023-02-01T21:09:40.751Z,8.13
2023-02-01T21:12:10.541Z,8.07
2023-02-01T21:14:42.639Z,8.13
2023-02-01T21:17:11.900Z,8.30
2023-02-01T21:19:43.882Z,8.23
2023-02-01T21:22:12.742Z,8.24
2023-02-01T21:24:42.325Z,8.20
2023-02-01T21:27:11.287Z,8.23
2023-02-01T21:29:41.115Z,8.16
2023-02-01T21:32:11.161Z,8.21
2023-02-01T21:34:39.474Z,8.25
2023-02-01T21:37:08.363Z,8.21
2023-02-01T21:39:36.836Z,8.33
2023-02-01T21:42:16.773Z,8.24
2023-02-01T21:44:47.641Z,8.16
2023-02-01T21:47:19.291Z,8.27
2023-02-01T21:49:52.807Z,8.23
2023-02-01T21:52:25.426Z,8.16
2023-02-01T21:54:59.605Z,8.20
2023-02-01T21:57:30.998Z,8.10
2023-02-01T21:59:59.455Z,8.16
2023-02-01T22:02:29.954Z,8.15
2023-02-01T22:05:00.573Z,8.11
2023-02-01T22:07:29.045Z,8.21
2023-02-01T22:09:57.072Z,8.24
2023-02-01T22:12:25.464Z,8.15
2023-02-01T22:14:53.467Z,8.17
2023-02-01T22:17:21.407Z,8.24
2023-02-01T22:19:53.675Z,8.21
2023-02-01T22:22:21.828Z,8.32
2023-02-01T22:24:50.004Z,8.29
2023-02-01T22:27:22.867Z,8.29
2023-02-01T22:30:14.110Z,8.31
2023-02-01T22:32:42.693Z,8.32
2023-02-01T22:35:12.336Z,8.43
2023-02-01T22:37:44.439Z,8.36
2023-02-01T22:40:13.705Z,8.41
2023-02-01T22:42:41.778Z,8.40
2023-02-01T22:45:11.201Z,8.50
2023-02-01T22:47:39.751Z,8.35
2023-02-01T22:50:09.378Z,8.32
2023-02-01T22:52:40.388Z,8.28
2023-02-01T22:55:09.279Z,8.24
2023-02-01T22:57:37.279Z,8.26
2023-02-01T23:00:07.809Z,8.12
2023-02-01T23:02:38.465Z,8.19
2023-02-01T23:05:09.248Z,8.26
2023-02-01T23:07:38.961Z,8.20
2023-02-01T23:10:08.285Z,8.19
2023-02-01T23:12:38.537Z,8.25
2023-02-01T23:15:09.481Z,8.22
2023-02-01T23:17:38.466Z,8.21
2023-02-01T23:20:09.855Z,8.18
2023-02-01T23:22:40.314Z,8.07
2023-02-01T23:25:11.565Z,8.16
2023-02-01T23:27:40.007Z,8.02
2023-02-01T23:30:10.124Z,7.96
2023-02-01T23:32:38.698Z,8.00
2023-02-01T23:35:08.744Z,8.07
2023-02-01T23:37:37.071Z,8.04
2023-02-01T23:40:08.710Z,8.02
2023-02-01T23:42:39.257Z,7.96
2023-02-01T23:45:07.520Z,8.08
2023-02-01T23:47:35.967Z,7.94
2023-02-01T23:50:04.165Z,8.04
2023-02-01T23:52:32.541Z,8.03
2023-02-01T23:55:03.536Z,8.06
2023-02-01T23:57:34.278Z,8.11
